createdAt,value
2023-01-23T00:00:09.520Z,7.60
2023-01-23T00:02:37.918Z,7.80
2023-01-23T00:05:06.824Z,6.95
2023-01-23T00:07:34.636Z,7.33
2023-01-23T00:10:02.424Z,7.75
2023-01-23T00:12:30.349Z,7.50
2023-01-23T00:14:59.682Z,7.17
2023-01-23T00:17:28.179Z,7.50
2023-01-23T00:19:56.140Z,7.40
2023-01-23T00:22:23.968Z,7.67
2023-01-23T00:24:51.817Z,9.00
2023-01-23T00:27:19.862Z,7.83
2023-01-23T00:29:48.541Z,7.83
2023-01-23T00:32:17.881Z,7.57
2023-01-23T00:34:46.477Z,7.47
2023-01-23T00:37:15.013Z,7.17
2023-01-23T00:39:43.032Z,7.05
2023-01-23T00:42:10.953Z,7.18
2023-01-23T00:44:39.251Z,7.40
2023-01-23T00:47:07.552Z,7.68
2023-01-23T00:49:37.252Z,7.50
2023-01-23T00:52:05.610Z,7.43
2023-01-23T00:54:33.929Z,6.93
2023-01-23T00:57:01.993Z,7.67
2023-01-23T00:59:29.982Z,7.05
2023-01-23T01:01:57.944Z,7.63
2023-01-23T01:04:25.967Z,6.70
2023-01-23T01:06:55.600Z,8.03
2023-01-23T01:09:23.998Z,8.10
2023-01-23T01:11:52.575Z,7.50
2023-01-23T01:14:20.542Z,7.83
2023-01-23T01:16:49.130Z,7.60
2023-01-23T01:19:19.101Z,7.25
2023-01-23T01:21:48.708Z,6.93
2023-01-23T01:24:17.980Z,7.20
2023-01-23T01:26:46.071Z,7.25
2023-01-23T01:29:14.004Z,7.23
2023-01-23T01:31:41.940Z,7.47
2023-01-23T01:34:09.853Z,7.43
2023-01-23T01:36:37.913Z,7.00
2023-01-23T01:39:06.060Z,7.73
2023-01-23T01:41:35.803Z,7.35
2023-01-23T01:44:04.256Z,7.60
2023-01-23T01:46:33.164Z,7.47
2023-01-23T01:49:06.938Z,7.73
2023-01-23T01:51:39.378Z,7.22
2023-01-23T01:54:15.844Z,6.83
2023-01-23T01:56:50.600Z,7.10
2023-01-23T01:59:20.245Z,7.13
2023-01-23T02:01:51.440Z,7.00
2023-01-23T02:04:19.583Z,7.03
2023-01-23T02:06:48.166Z,6.23
2023-01-23T02:09:20.129Z,6.53
2023-01-23T02:11:50.286Z,6.50
2023-01-23T02:14:18.428Z,6.00
2023-01-23T02:16:51.077Z,6.00
2023-01-23T02:19:34.139Z,6.50
2023-01-23T02:22:08.997Z,5.82
2023-01-23T02:24:40.307Z,6.63
2023-01-23T02:27:09.848Z,6.00
2023-01-23T02:29:45.131Z,6.10
2023-01-23T02:32:13.528Z,6.50
2023-01-23T02:34:43.691Z,6.30
2023-01-23T02:37:11.627Z,6.00
2023-01-23T02:39:39.700Z,5.73
2023-01-23T02:42:09.528Z,6.30
2023-01-23T02:44:37.463Z,6.53
2023-01-23T02:47:11.867Z,6.50
2023-01-23T02:49:40.415Z,6.40
2023-01-23T02:52:09.667Z,6.80
2023-01-23T02:54:38.080Z,6.20
2023-01-23T02:57:05.956Z,7.00
2023-01-23T02:59:53.223Z,6.60
2023-01-23T03:02:21.063Z,6.63
2023-01-23T03:04:48.884Z,6.57
2023-01-23T03:07:16.794Z,6.47
2023-01-23T03:09:47.808Z,6.57
2023-01-23T03:12:16.155Z,5.83
2023-01-23T03:14:45.474Z,6.50
2023-01-23T03:17:14.983Z,6.30
2023-01-23T03:19:42.776Z,7.30
2023-01-23T03:22:10.701Z,6.83
2023-01-23T03:24:39.143Z,6.63
2023-01-23T03:27:06.925Z,6.47
2023-01-23T03:29:52.774Z,7.33
2023-01-23T03:32:22.568Z,6.80
2023-01-23T03:34:50.485Z,6.33
2023-01-23T03:37:19.721Z,6.50
2023-01-23T03:40:07.212Z,6.50
2023-01-23T03:42:35.775Z,6.50
2023-01-23T03:45:04.124Z,6.55
2023-01-23T03:47:33.334Z,6.67
2023-01-23T03:50:01.194Z,7.43
2023-01-23T03:52:29.052Z,7.23
2023-01-23T03:54:57.051Z,6.97
2023-01-23T03:57:25.033Z,7.90
2023-01-23T03:59:52.859Z,7.23
2023-01-23T04:02:20.781Z,6.97
2023-01-23T04:04:50.097Z,7.40
2023-01-23T04:07:17.973Z,7.77
2023-01-23T04:09:45.921Z,6.90
2023-01-23T04:12:13.738Z,7.10
2023-01-23T04:14:41.687Z,7.43
2023-01-23T04:17:10.005Z,7.27
2023-01-23T04:19:37.832Z,7.40
2023-01-23T04:22:07.057Z,7.10
2023-01-23T04:24:35.161Z,6.80
2023-01-23T04:27:02.998Z,7.83
2023-01-23T04:29:30.872Z,6.80
2023-01-23T04:31:58.704Z,6.80
2023-01-23T04:34:26.636Z,7.23
2023-01-23T04:36:54.459Z,7.30
2023-01-23T04:39:23.701Z,6.53
2023-01-23T04:41:51.551Z,6.67
2023-01-23T04:44:22.176Z,6.57
2023-01-23T04:46:51.124Z,6.60
2023-01-23T04:49:19.540Z,7.37
2023-01-23T04:51:48.423Z,6.90
2023-01-23T04:54:16.446Z,7.03
2023-01-23T04:56:45.924Z,7.33
2023-01-23T04:59:14.180Z,7.37
2023-01-23T05:01:42.007Z,7.40
2023-01-23T05:04:09.822Z,7.53
2023-01-23T05:06:38.020Z,7.40
2023-01-23T05:09:05.874Z,7.80
2023-01-23T05:11:33.864Z,7.73
2023-01-23T05:14:03.026Z,8.13
2023-01-23T05:16:31.058Z,8.73
2023-01-23T05:18:58.911Z,8.50
2023-01-23T05:21:26.764Z,8.93
2023-01-23T05:23:54.726Z,8.53
2023-01-23T05:26:22.637Z,9.97
2023-01-23T05:28:50.485Z,9.30
2023-01-23T05:31:19.836Z,9.33
2023-01-23T05:33:48.018Z,9.33
2023-01-23T05:36:18.358Z,10.07
2023-01-23T05:38:46.507Z,9.17
2023-01-23T05:41:14.451Z,10.13
2023-01-23T05:43:42.335Z,9.27
2023-01-23T05:46:10.258Z,9.77
2023-01-23T05:48:39.491Z,10.77
2023-01-23T05:51:07.387Z,10.27
2023-01-23T05:53:35.154Z,10.53
2023-01-23T05:56:06.922Z,9.80
2023-01-23T05:58:34.958Z,10.33
2023-01-23T06:01:03.625Z,9.47
2023-01-23T06:03:31.524Z,10.30
2023-01-23T06:06:02.030Z,10.47
2023-01-23T06:08:29.897Z,10.47
2023-01-23T06:10:59.751Z,9.20
2023-01-23T06:13:27.868Z,8.70
2023-01-23T06:15:56.120Z,7.67
2023-01-23T06:18:24.118Z,9.23
2023-01-23T06:20:52.050Z,9.07
2023-01-23T06:23:21.404Z,9.17
2023-01-23T06:25:49.171Z,9.43
2023-01-23T06:28:17.073Z,8.70
2023-01-23T06:30:44.989Z,9.07
2023-01-23T06:33:12.865Z,8.37
2023-01-23T06:35:41.255Z,8.40
2023-01-23T06:38:09.309Z,9.27
2023-01-23T06:40:42.096Z,8.10
2023-01-23T06:43:10.040Z,7.90
2023-01-23T06:45:37.893Z,8.90
2023-01-23T06:48:05.871Z,8.90
2023-01-23T06:50:33.761Z,8.97
2023-01-23T06:53:01.601Z,8.83
2023-01-23T06:55:29.436Z,7.90
2023-01-23T06:57:58.722Z,8.63
2023-01-23T07:00:27.132Z,9.50
2023-01-23T07:02:58.877Z,9.03
2023-01-23T07:05:26.766Z,9.00
2023-01-23T07:07:54.619Z,7.87
2023-01-23T07:10:23.095Z,8.70
2023-01-23T07:12:51.417Z,10.00
2023-01-23T07:15:20.979Z,8.93
2023-01-23T07:17:48.725Z,8.97
2023-01-23T07:20:17.001Z,9.33
2023-01-23T07:22:45.139Z,8.57
2023-01-23T07:25:12.970Z,8.93
2023-01-23T07:27:41.109Z,8.47
2023-01-23T07:30:10.737Z,9.07
2023-01-23T07:32:39.939Z,9.17
2023-01-23T07:35:09.180Z,8.93
2023-01-23T07:37:37.556Z,9.60
2023-01-23T07:40:06.220Z,9.10
2023-01-23T07:42:33.998Z,9.20
2023-01-23T07:45:02.050Z,9.10
2023-01-23T07:47:29.834Z,9.33
2023-01-23T07:49:59.013Z,8.17
2023-01-23T07:52:26.940Z,9.80
2023-01-23T07:54:54.695Z,8.33
2023-01-23T07:57:22.520Z,9.00
2023-01-23T07:59:50.348Z,9.53
2023-01-23T08:02:18.270Z,9.53
2023-01-23T08:04:46.100Z,8.87
2023-01-23T08:07:15.334Z,9.00
2023-01-23T08:09:43.396Z,9.77
2023-01-23T08:12:12.778Z,9.23
2023-01-23T08:14:41.582Z,8.87
2023-01-23T08:17:09.409Z,8.77
2023-01-23T08:19:37.230Z,8.77
2023-01-23T08:22:05.889Z,9.03
2023-01-23T08:24:35.095Z,8.60
2023-01-23T08:27:03.073Z,8.90
2023-01-23T08:29:32.549Z,8.93
2023-01-23T08:32:00.662Z,8.67
2023-01-23T08:34:28.588Z,8.10
2023-01-23T08:36:56.553Z,8.63
2023-01-23T08:39:24.984Z,8.27
2023-01-23T08:41:55.428Z,9.07
2023-01-23T08:44:23.264Z,8.47
2023-01-23T08:46:51.255Z,8.77
2023-01-23T08:49:20.411Z,10.40
2023-01-23T08:51:51.363Z,9.63
2023-01-23T08:54:19.155Z,9.00
2023-01-23T08:56:46.970Z,8.53
2023-01-23T08:59:16.184Z,8.17
2023-01-23T09:01:43.985Z,8.80
2023-01-23T09:04:11.770Z,8.60
2023-01-23T09:06:39.777Z,7.80
2023-01-23T09:09:09.400Z,7.93
2023-01-23T09:11:37.332Z,8.20
2023-01-23T09:14:05.250Z,8.40
2023-01-23T09:16:34.592Z,7.97
2023-01-23T09:19:02.415Z,10.50
2023-01-23T09:21:30.278Z,8.13
2023-01-23T09:23:58.179Z,7.73
2023-01-23T09:26:26.094Z,7.53
2023-01-23T09:28:53.865Z,7.10
2023-01-23T09:31:21.671Z,7.13
2023-01-23T09:33:51.134Z,6.90
2023-01-23T09:36:20.624Z,7.23
2023-01-23T09:38:53.185Z,7.53
2023-01-23T09:41:24.852Z,7.70
2023-01-23T09:43:57.431Z,7.03
2023-01-23T09:46:29.823Z,7.07
2023-01-23T09:49:04.220Z,7.30
2023-01-23T09:51:42.441Z,7.50
2023-01-23T09:54:20.180Z,7.20
2023-01-23T09:56:50.347Z,6.70
2023-01-23T09:59:29.011Z,6.80
2023-01-23T10:01:57.566Z,6.97
2023-01-23T10:04:26.759Z,7.30
2023-01-23T10:07:13.612Z,6.97
2023-01-23T10:09:51.366Z,7.07
2023-01-23T10:12:33.520Z,7.10
2023-01-23T10:15:34.541Z,7.53
2023-01-23T10:18:16.169Z,6.70
2023-01-23T10:21:10.789Z,7.10
2023-01-23T10:23:48.377Z,6.43
2023-01-23T10:26:21.579Z,6.60
2023-01-23T10:28:50.583Z,7.40
2023-01-23T10:31:32.053Z,7.33
2023-01-23T10:34:08.745Z,7.20
2023-01-23T10:36:53.744Z,6.80
2023-01-23T10:39:27.825Z,7.17
2023-01-23T10:42:01.978Z,6.60
2023-01-23T10:44:32.385Z,6.93
2023-01-23T10:47:03.908Z,7.00
2023-01-23T10:49:35.116Z,6.83
2023-01-23T10:52:04.900Z,6.90
2023-01-23T10:54:47.034Z,6.83
2023-01-23T10:57:24.661Z,6.73
2023-01-23T10:59:56.962Z,7.57
2023-01-23T11:02:29.890Z,6.83
2023-01-23T11:04:58.695Z,7.13
2023-01-23T11:07:29.261Z,6.50
2023-01-23T11:09:59.579Z,6.63
2023-01-23T11:12:28.927Z,6.80
2023-01-23T11:15:21.472Z,8.07
2023-01-23T11:17:50.717Z,6.60
2023-01-23T11:20:28.314Z,6.57
2023-01-23T11:23:06.521Z,5.95
2023-01-23T11:25:38.128Z,6.37
2023-01-23T11:28:23.433Z,6.57
2023-01-23T11:31:07.921Z,7.20
2023-01-23T11:33:47.592Z,7.57
2023-01-23T11:36:37.722Z,7.70
2023-01-23T11:39:17.359Z,6.07
2023-01-23T11:41:47.234Z,6.57
2023-01-23T11:44:19.184Z,6.45
2023-01-23T11:47:02.600Z,6.88
2023-01-23T11:49:51.451Z,7.23
2023-01-23T11:52:31.829Z,7.50
2023-01-23T11:55:28.121Z,6.50
2023-01-23T11:58:04.869Z,6.55
2023-01-23T12:00:39.226Z,6.47
2023-01-23T12:03:31.058Z,6.40
2023-01-23T12:06:36.015Z,6.20
2023-01-23T12:09:10.637Z,5.70
2023-01-23T12:11:52.451Z,6.53
2023-01-23T12:14:26.233Z,6.83
2023-01-23T12:17:12.417Z,6.22
2023-01-23T12:20:11.379Z,6.47
2023-01-23T12:22:55.636Z,6.20
2023-01-23T12:25:31.141Z,6.20
2023-01-23T12:28:06.995Z,5.27
2023-01-23T12:30:56.506Z,6.20
2023-01-23T12:33:36.900Z,6.20
2023-01-23T12:36:20.781Z,7.57
2023-01-23T12:38:57.932Z,6.53
2023-01-23T12:41:36.413Z,6.07
2023-01-23T12:44:12.503Z,5.90
2023-01-23T12:46:46.187Z,6.20
2023-01-23T12:49:27.382Z,5.37
2023-01-23T12:52:01.490Z,5.73
2023-01-23T12:54:36.944Z,6.37
2023-01-23T12:57:07.431Z,5.67
2023-01-23T12:59:49.917Z,6.90
2023-01-23T13:02:26.794Z,6.30
2023-01-23T13:05:10.957Z,8.10
2023-01-23T13:07:47.273Z,6.90
2023-01-23T13:10:26.752Z,6.63
2023-01-23T13:12:57.315Z,6.60
2023-01-23T13:15:39.853Z,7.03
2023-01-23T13:18:23.524Z,7.38
2023-01-23T13:21:15.657Z,7.10
2023-01-23T13:23:43.652Z,7.38
2023-01-23T13:26:29.025Z,7.30
2023-01-23T13:28:58.728Z,7.95
2023-01-23T13:31:35.507Z,7.07
2023-01-23T13:34:15.403Z,7.32
2023-01-23T13:36:44.485Z,7.45
2023-01-23T13:39:28.379Z,7.63
2023-01-23T13:42:45.709Z,7.20
2023-01-23T13:45:31.187Z,8.07
2023-01-23T14:22:37.189Z,7.40
2023-01-23T14:25:15.065Z,7.78
2023-01-23T14:27:52.588Z,6.90
2023-01-23T14:30:24.707Z,7.43
2023-01-23T14:32:52.752Z,7.50
2023-01-23T14:35:26.129Z,7.30
2023-01-23T14:37:59.203Z,6.85
2023-01-23T14:40:35.183Z,7.43
2023-01-23T14:43:09.726Z,8.00
2023-01-23T14:45:39.189Z,7.20
2023-01-23T14:48:14.720Z,8.35
2023-01-23T14:50:42.963Z,8.07
2023-01-23T14:53:15.937Z,7.85
2023-01-23T14:55:47.282Z,8.02
2023-01-23T14:58:22.231Z,7.18
2023-01-23T15:00:51.006Z,8.17
2023-01-23T15:03:37.969Z,6.83
2023-01-23T15:06:10.759Z,8.23
2023-01-23T15:08:40.265Z,7.60
2023-01-23T15:11:12.036Z,7.15
2023-01-23T15:13:48.353Z,8.03
2023-01-23T15:16:20.726Z,7.78
2023-01-23T15:19:00.638Z,7.50
2023-01-23T15:21:34.956Z,7.63
2023-01-23T15:24:23.070Z,7.67
2023-01-23T15:27:23.604Z,7.93
2023-01-23T15:29:51.796Z,7.47
2023-01-23T15:32:26.327Z,8.05
2023-01-23T15:34:57.802Z,7.80
2023-01-23T15:37:27.302Z,7.75
2023-01-23T15:39:59.740Z,8.05
2023-01-23T15:42:31.013Z,8.40
2023-01-23T15:45:01.440Z,8.32
2023-01-23T15:47:30.759Z,8.60
2023-01-23T15:50:01.470Z,8.48
2023-01-23T15:52:31.050Z,8.68
2023-01-23T15:55:02.518Z,8.05
2023-01-23T15:57:30.417Z,8.55
2023-01-23T15:59:58.205Z,8.43
2023-01-23T16:02:31.489Z,8.55
2023-01-23T16:05:01.103Z,9.35
2023-01-23T16:07:34.433Z,7.63
2023-01-23T16:10:04.447Z,8.40
2023-01-23T16:12:32.852Z,7.85
2023-01-23T16:15:00.748Z,8.48
2023-01-23T16:17:28.625Z,8.52
2023-01-23T16:19:56.496Z,8.77
2023-01-23T16:22:29.173Z,8.35
2023-01-23T16:24:58.373Z,8.60
2023-01-23T16:27:28.297Z,9.00
2023-01-23T16:29:56.444Z,7.68
2023-01-23T16:32:25.149Z,8.43
2023-01-23T16:34:53.169Z,8.30
2023-01-23T16:37:21.169Z,8.02
2023-01-23T16:39:49.067Z,7.93
2023-01-23T16:42:23.367Z,8.30
2023-01-23T16:44:52.614Z,8.15
2023-01-23T16:47:20.536Z,8.48
2023-01-23T16:49:53.337Z,8.10
2023-01-23T16:52:25.979Z,8.52
2023-01-23T16:54:55.528Z,7.55
2023-01-23T16:57:24.219Z,7.13
2023-01-23T16:59:56.349Z,8.40
2023-01-23T17:02:29.300Z,8.10
2023-01-23T17:04:57.290Z,8.68
2023-01-23T17:07:25.058Z,8.65
2023-01-23T17:09:52.875Z,7.70
2023-01-23T17:12:23.344Z,8.57
2023-01-23T17:14:53.557Z,8.85
2023-01-23T17:17:29.119Z,8.77
2023-01-23T17:20:07.967Z,8.27
2023-01-23T17:22:39.416Z,8.97
2023-01-23T17:25:14.446Z,8.48
2023-01-23T17:27:45.833Z,7.68
2023-01-23T17:30:19.295Z,6.87
2023-01-23T17:32:49.758Z,8.80
2023-01-23T17:35:22.759Z,9.45
2023-01-23T17:37:51.173Z,9.05
2023-01-23T17:40:19.430Z,8.55
2023-01-23T17:42:47.326Z,8.55
2023-01-23T17:45:17.824Z,9.85
2023-01-23T17:47:48.173Z,8.60
2023-01-23T17:50:20.727Z,8.70
2023-01-23T17:52:50.660Z,8.02
2023-01-23T17:55:20.689Z,8.27
2023-01-23T17:57:49.045Z,9.73
2023-01-23T18:00:20.811Z,9.20
2023-01-23T18:02:51.168Z,9.45
2023-01-23T18:05:19.138Z,8.80
2023-01-23T18:07:53.711Z,9.07
2023-01-23T18:10:24.563Z,9.15
2023-01-23T18:13:00.768Z,7.68
2023-01-23T18:15:37.855Z,7.80
2023-01-23T18:18:19.279Z,8.55
2023-01-23T18:20:48.325Z,9.25
2023-01-23T18:23:16.758Z,10.18
2023-01-23T18:25:46.644Z,9.77
2023-01-23T18:28:20.284Z,9.27
2023-01-23T18:31:00.160Z,8.02
2023-01-23T18:33:49.438Z,9.35
2023-01-23T18:36:26.313Z,9.23
2023-01-23T18:39:09.901Z,9.23
2023-01-23T18:41:41.784Z,8.88
2023-01-23T18:44:17.521Z,8.63
2023-01-23T18:46:47.187Z,8.40
2023-01-23T18:49:27.779Z,9.00
2023-01-23T18:52:09.051Z,8.65
2023-01-23T18:54:42.049Z,8.50
2023-01-23T18:57:24.452Z,8.60
2023-01-23T19:00:02.602Z,8.90
2023-01-23T19:02:40.460Z,9.10
2023-01-23T19:05:27.659Z,9.23
2023-01-23T19:07:56.412Z,8.45
2023-01-23T19:10:27.106Z,9.70
2023-01-23T19:13:09.119Z,9.57
2023-01-23T19:15:45.609Z,10.35
2023-01-23T19:18:38.789Z,9.38
2023-01-23T19:21:18.048Z,9.18
2023-01-23T19:23:52.661Z,9.80
2023-01-23T19:26:21.354Z,10.70
2023-01-23T19:28:50.744Z,10.10
2023-01-23T19:31:23.047Z,9.88
2023-01-23T19:33:52.586Z,9.80
2023-01-23T19:36:21.724Z,8.70
2023-01-23T19:38:49.683Z,11.80
2023-01-23T19:41:20.748Z,10.20
2023-01-23T19:43:50.431Z,8.98
2023-01-23T19:46:19.057Z,9.40
2023-01-23T19:48:47.000Z,13.48
2023-01-23T19:51:19.539Z,10.20
2023-01-23T19:53:47.757Z,9.82
2023-01-23T19:56:18.911Z,10.48
2023-01-23T19:58:47.671Z,10.95
2023-01-23T20:01:22.876Z,9.40
2023-01-23T20:03:51.197Z,8.70
2023-01-23T20:06:20.606Z,9.90
2023-01-23T20:08:48.433Z,9.93
2023-01-23T20:11:16.564Z,10.35
2023-01-23T20:13:44.383Z,9.55
2023-01-23T20:16:18.028Z,8.88
2023-01-23T20:18:46.795Z,9.70
2023-01-23T20:21:15.278Z,10.10
2023-01-23T20:23:44.598Z,10.07
2023-01-23T20:26:12.533Z,9.95
2023-01-23T20:28:40.878Z,9.10
2023-01-23T20:31:11.159Z,8.27
2023-01-23T20:33:39.169Z,8.73
2023-01-23T20:36:08.032Z,9.60
2023-01-23T20:38:35.893Z,8.95
2023-01-23T20:41:06.039Z,8.80
2023-01-23T20:43:34.141Z,8.77
2023-01-23T20:46:02.539Z,9.40
2023-01-23T20:48:34.773Z,9.60
2023-01-23T20:51:03.124Z,8.73
2023-01-23T20:53:29.955Z,9.35
2023-01-23T20:55:59.596Z,9.13
2023-01-23T20:58:46.703Z,9.55
2023-01-23T21:01:16.932Z,9.32
2023-01-23T21:03:46.638Z,9.10
2023-01-23T21:06:16.448Z,8.95
2023-01-23T21:08:44.661Z,8.80
2023-01-23T21:11:14.720Z,8.95
2023-01-23T21:13:44.586Z,9.57
2023-01-23T21:16:14.635Z,9.10
2023-01-23T21:18:44.803Z,9.20
2023-01-23T21:21:14.692Z,8.40
2023-01-23T21:23:42.813Z,8.40
2023-01-23T21:26:11.213Z,8.63
2023-01-23T21:28:39.412Z,8.32
2023-01-23T21:31:13.734Z,7.97
2023-01-23T21:33:44.090Z,8.40
2023-01-23T21:36:12.637Z,8.02
2023-01-23T21:38:40.777Z,9.02
2023-01-23T21:41:08.567Z,8.05
2023-01-23T21:43:36.370Z,8.68
2023-01-23T21:46:04.822Z,8.23
2023-01-23T21:48:35.382Z,8.00
2023-01-23T21:51:08.227Z,7.80
2023-01-23T21:53:37.668Z,7.95
2023-01-23T21:56:06.829Z,8.38
2023-01-23T21:58:34.911Z,8.32
2023-01-23T22:01:25.362Z,8.02
2023-01-23T22:03:54.595Z,8.23
2023-01-23T22:06:22.696Z,8.23
2023-01-23T22:08:50.581Z,7.75
2023-01-23T22:11:18.648Z,8.50
2023-01-23T22:13:47.068Z,8.13
2023-01-23T22:16:15.387Z,8.23
2023-01-23T22:18:43.395Z,7.78
2023-01-23T22:21:13.074Z,8.60
2023-01-23T22:23:41.299Z,7.85
2023-01-23T22:26:11.243Z,8.13
2023-01-23T22:28:39.652Z,8.40
2023-01-23T22:31:11.038Z,8.40
2023-01-23T22:33:41.137Z,8.20
2023-01-23T22:36:12.917Z,7.72
2023-01-23T22:38:42.246Z,8.05
2023-01-23T22:41:14.245Z,8.02
2023-01-23T22:43:42.185Z,8.13
2023-01-23T22:46:13.994Z,8.35
2023-01-23T22:48:42.447Z,9.02
2023-01-23T22:51:15.944Z,9.02
2023-01-23T22:53:45.691Z,9.35
2023-01-23T22:56:14.106Z,9.00
2023-01-23T22:58:45.767Z,9.07
2023-01-23T23:01:14.078Z,8.77
2023-01-23T23:03:42.268Z,8.98
2023-01-23T23:06:12.811Z,9.40
2023-01-23T23:08:48.142Z,8.65
2023-01-23T23:11:18.122Z,8.75
2023-01-23T23:13:46.098Z,8.80
2023-01-23T23:16:17.791Z,9.27
2023-01-23T23:18:46.751Z,8.50
2023-01-23T23:21:16.599Z,8.57
2023-01-23T23:23:46.142Z,8.30
2023-01-23T23:26:14.695Z,8.88
2023-01-23T23:28:43.143Z,9.05
2023-01-23T23:31:11.297Z,9.25
2023-01-23T23:33:39.410Z,7.95
2023-01-23T23:36:08.196Z,8.38
2023-01-23T23:38:36.141Z,8.27
2023-01-23T23:41:07.138Z,8.38
2023-01-23T23:43:35.814Z,7.97
2023-01-23T23:46:06.188Z,8.48
2023-01-23T23:48:35.406Z,8.45
2023-01-23T23:51:04.960Z,8.32
2023-01-23T23:53:33.171Z,8.73
2023-01-23T23:56:01.116Z,8.75
2023-01-23T23:58:30.341Z,8.45
